createdAt,value
2023-01-29T00:02:05.686Z,99552.50
2023-01-29T00:04:32.900Z,99635.44
2023-01-29T00:06:59.957Z,99545.28
2023-01-29T00:09:27.939Z,99643.84
2023-01-29T00:11:54.701Z,99626.84
2023-01-29T00:14:21.651Z,99627.69
2023-01-29T00:16:48.612Z,99566.25
2023-01-29T00:19:15.399Z,99630.09
2023-01-29T00:21:42.160Z,99543.44
2023-01-29T00:24:09.060Z,99460.03
2023-01-29T00:26:35.854Z,99629.78
2023-01-29T00:29:02.723Z,99492.16
2023-01-29T00:31:29.836Z,99631.53
2023-01-29T00:33:57.518Z,99608.06
2023-01-29T00:36:26.092Z,99469.53
2023-01-29T00:38:58.815Z,99631.44
2023-01-29T00:41:49.367Z,99619.22
2023-01-29T00:44:34.975Z,99620.22
2023-01-29T00:47:02.433Z,99535.38
2023-01-29T00:49:30.366Z,99602.47
2023-01-29T00:52:17.226Z,99488.88
2023-01-29T00:54:44.168Z,99441.63
2023-01-29T00:57:11.127Z,99445.06
2023-01-29T00:59:38.149Z,99572.13
2023-01-29T01:02:23.928Z,99566.22
2023-01-29T01:04:50.737Z,99437.56
2023-01-29T01:07:17.731Z,99513.34
2023-01-29T01:10:03.240Z,99484.03
2023-01-29T01:12:31.261Z,99551.97
2023-01-29T01:14:58.039Z,99581.53
2023-01-29T01:17:24.808Z,99579.75
2023-01-29T01:19:51.718Z,99590.69
2023-01-29T01:22:18.830Z,99434.34
2023-01-29T01:24:45.708Z,99585.63
2023-01-29T01:27:13.073Z,99592.38
2023-01-29T01:29:40.739Z,99464.59
2023-01-29T01:32:08.053Z,99391.94
2023-01-29T01:34:35.868Z,99577.47
2023-01-29T01:37:02.652Z,99451.31
2023-01-29T01:39:29.446Z,99573.25
2023-01-29T01:41:56.489Z,99579.25
2023-01-29T01:44:53.373Z,99580.09
2023-01-29T01:47:26.632Z,99573.47
2023-01-29T01:49:54.833Z,99580.44
2023-01-29T01:52:22.130Z,99339.25
2023-01-29T01:54:50.901Z,99572.72
2023-01-29T01:57:24.849Z,99551.88
2023-01-29T02:00:10.015Z,99455.06
2023-01-29T02:03:03.339Z,99449.97
2023-01-29T02:05:51.108Z,99495.31
2023-01-29T02:08:49.061Z,99456.66
2023-01-29T02:11:16.758Z,99546.03
2023-01-29T02:13:44.480Z,99450.78
2023-01-29T02:16:11.248Z,99531.59
2023-01-29T02:18:39.457Z,99507.03
2023-01-29T02:21:39.172Z,99558.34
2023-01-29T02:24:06.081Z,99554.19
2023-01-29T02:26:35.565Z,99559.25
2023-01-29T02:29:26.932Z,99367.66
2023-01-29T02:32:09.179Z,99568.59
2023-01-29T02:35:04.439Z,99577.06
2023-01-29T02:37:43.629Z,99572.78
2023-01-29T02:40:29.198Z,99503.34
2023-01-29T02:43:06.386Z,99568.72
2023-01-29T02:45:39.581Z,99573.13
2023-01-29T02:48:11.711Z,99624.28
2023-01-29T02:50:45.519Z,99564.91
2023-01-29T02:53:19.114Z,99515.09
2023-01-29T02:55:53.365Z,99545.44
2023-01-29T02:58:44.177Z,99383.03
2023-01-29T03:01:23.403Z,99444.56
2023-01-29T03:03:56.144Z,99281.38
2023-01-29T03:06:30.212Z,99420.66
2023-01-29T03:09:07.056Z,99376.34
2023-01-29T03:11:48.779Z,99519.16
2023-01-29T03:14:58.786Z,99502.50
2023-01-29T03:17:33.577Z,99464.63
2023-01-29T03:20:03.456Z,99506.81
2023-01-29T03:22:31.464Z,99532.09
2023-01-29T03:25:20.958Z,99374.06
2023-01-29T03:28:10.762Z,99493.56
2023-01-29T03:31:14.971Z,99530.66
2023-01-29T03:34:09.037Z,99525.47
2023-01-29T03:36:56.041Z,99451.63
2023-01-29T03:39:29.814Z,99428.56
2023-01-29T03:42:21.750Z,99482.03
2023-01-29T03:44:54.699Z,99541.72
2023-01-29T03:47:40.552Z,99514.53
2023-01-29T03:50:11.627Z,99458.06
2023-01-29T03:53:08.639Z,99434.44
2023-01-29T03:55:35.431Z,99498.41
2023-01-29T03:58:25.579Z,99499.34
2023-01-29T04:01:03.610Z,99284.41
2023-01-29T04:03:33.783Z,99536.81
2023-01-29T04:06:05.565Z,99503.63
2023-01-29T04:08:47.798Z,99526.56
2023-01-29T04:11:18.562Z,99503.75
2023-01-29T04:13:46.721Z,99505.56
2023-01-29T04:16:29.101Z,99316.53
2023-01-29T04:19:19.183Z,99491.44
2023-01-29T04:21:49.120Z,99494.22
2023-01-29T04:24:16.750Z,99491.75
2023-01-29T04:26:58.534Z,99316.72
2023-01-29T04:29:31.517Z,99471.19
2023-01-29T04:32:13.772Z,99421.81
2023-01-29T04:34:51.644Z,99475.31
2023-01-29T04:37:32.726Z,99481.28
2023-01-29T04:40:13.877Z,99522.16
2023-01-29T04:42:55.186Z,99467.78
2023-01-29T04:45:31.834Z,99360.00
2023-01-29T04:48:21.375Z,99499.03
2023-01-29T04:51:06.193Z,99390.47
2023-01-29T04:53:45.978Z,99452.16
2023-01-29T04:56:24.675Z,99455.34
2023-01-29T04:59:17.669Z,99460.22
2023-01-29T05:01:45.005Z,99344.16
2023-01-29T05:04:14.875Z,99286.56
2023-01-29T05:06:42.649Z,99325.16
2023-01-29T05:09:09.897Z,99414.16
2023-01-29T05:11:37.631Z,99448.47
2023-01-29T05:14:08.627Z,99463.69
2023-01-29T05:16:43.072Z,99476.63
2023-01-29T05:19:13.021Z,99336.56
2023-01-29T05:21:41.596Z,99417.00
2023-01-29T05:24:16.818Z,99472.47
2023-01-29T05:27:05.756Z,99314.38
2023-01-29T05:29:32.752Z,99323.88
2023-01-29T05:31:59.771Z,99368.34
2023-01-29T05:34:26.616Z,99408.44
2023-01-29T05:36:53.634Z,99326.94
2023-01-29T05:39:20.546Z,99465.66
2023-01-29T05:41:47.693Z,99468.06
2023-01-29T05:44:14.431Z,99469.75
2023-01-29T05:46:41.444Z,99226.16
2023-01-29T05:49:08.641Z,99405.31
2023-01-29T05:51:36.334Z,99478.50
2023-01-29T05:54:03.983Z,99503.09
2023-01-29T05:56:31.571Z,99481.06
2023-01-29T05:58:58.657Z,99476.69
2023-01-29T06:01:28.277Z,99440.03
2023-01-29T06:03:55.506Z,99477.91
2023-01-29T06:06:22.494Z,99373.94
2023-01-29T06:08:49.500Z,99479.63
2023-01-29T06:11:18.245Z,99485.50
2023-01-29T06:13:45.859Z,99448.81
2023-01-29T06:16:14.010Z,99450.28
2023-01-29T06:18:41.709Z,99209.81
2023-01-29T06:21:11.176Z,99268.63
2023-01-29T06:23:39.439Z,99462.88
2023-01-29T06:26:09.163Z,99361.03
2023-01-29T06:28:36.134Z,99343.41
2023-01-29T06:31:22.197Z,99470.50
2023-01-29T06:33:52.263Z,99461.97
2023-01-29T06:36:19.500Z,99195.53
2023-01-29T06:38:47.245Z,99510.13
2023-01-29T06:41:17.207Z,99387.97
2023-01-29T06:43:45.032Z,99267.09
2023-01-29T06:46:12.153Z,99467.13
2023-01-29T06:48:38.980Z,99412.25
2023-01-29T06:51:08.273Z,99257.47
2023-01-29T06:53:36.476Z,99453.28
2023-01-29T06:56:04.068Z,99397.44
2023-01-29T06:58:31.060Z,99419.34
2023-01-29T07:01:19.699Z,99440.16
2023-01-29T07:03:56.512Z,99439.22
2023-01-29T07:06:28.981Z,99475.69
2023-01-29T07:08:56.040Z,99429.00
2023-01-29T07:11:22.772Z,99438.59
2023-01-29T07:13:49.450Z,99408.78
2023-01-29T07:16:16.256Z,99476.59
2023-01-29T07:18:42.996Z,99435.03
2023-01-29T07:21:09.818Z,99353.47
2023-01-29T07:23:36.682Z,99252.78
2023-01-29T07:26:06.142Z,99421.25
2023-01-29T07:28:37.896Z,99431.34
2023-01-29T07:31:05.827Z,99424.41
2023-01-29T07:33:45.896Z,99421.69
2023-01-29T07:36:16.168Z,99413.38
2023-01-29T07:38:50.261Z,99338.53
2023-01-29T07:41:17.187Z,99194.13
2023-01-29T07:43:50.049Z,99410.75
2023-01-29T07:46:17.626Z,99396.00
2023-01-29T07:48:44.487Z,99408.25
2023-01-29T07:51:11.450Z,99310.63
2023-01-29T07:53:38.709Z,99404.91
2023-01-29T07:56:05.726Z,99232.66
2023-01-29T07:58:34.398Z,99241.06
2023-01-29T08:01:07.049Z,99400.56
2023-01-29T08:03:33.780Z,99416.53
2023-01-29T08:06:00.492Z,99350.00
2023-01-29T08:08:27.363Z,99412.84
2023-01-29T08:10:54.077Z,99417.91
2023-01-29T08:13:21.033Z,99400.09
2023-01-29T08:15:47.968Z,99375.97
2023-01-29T08:18:14.917Z,99301.31
2023-01-29T08:20:41.689Z,99396.00
2023-01-29T08:23:13.588Z,99452.81
2023-01-29T08:25:40.416Z,99399.75
2023-01-29T08:28:07.477Z,99296.38
2023-01-29T08:30:34.786Z,99390.06
2023-01-29T08:33:03.306Z,99342.22
2023-01-29T08:35:30.488Z,99285.16
2023-01-29T08:37:59.965Z,99192.53
2023-01-29T08:40:28.717Z,99411.13
2023-01-29T08:43:04.089Z,99271.44
2023-01-29T08:45:38.104Z,99359.13
2023-01-29T08:48:07.670Z,99381.59
2023-01-29T08:50:35.172Z,99232.75
2023-01-29T08:53:04.555Z,99379.56
2023-01-29T08:55:31.528Z,99376.75
2023-01-29T08:57:58.437Z,99364.94
2023-01-29T09:00:25.591Z,99364.16
2023-01-29T09:02:52.537Z,99367.59
2023-01-29T09:05:22.124Z,99351.84
2023-01-29T09:07:48.878Z,99228.56
2023-01-29T09:10:16.149Z,99349.00
2023-01-29T09:12:43.077Z,99339.72
2023-01-29T09:15:10.298Z,99196.59
2023-01-29T09:17:37.000Z,99222.25
2023-01-29T09:20:06.132Z,99347.84
2023-01-29T09:22:32.952Z,99290.31
2023-01-29T09:24:59.771Z,99288.56
2023-01-29T09:27:26.654Z,99192.84
2023-01-29T09:29:53.351Z,99227.84
2023-01-29T09:32:49.669Z,99324.34
2023-01-29T09:35:07.120Z,99185.69
2023-01-29T09:37:33.884Z,99310.81
2023-01-29T09:40:00.608Z,99304.16
2023-01-29T09:42:48.658Z,99155.59
2023-01-29T09:45:21.721Z,98847.31
2023-01-29T09:47:48.876Z,99281.72
2023-01-29T09:50:21.940Z,99304.00
2023-01-29T09:53:05.465Z,99056.88
2023-01-29T09:55:37.283Z,99211.38
2023-01-29T09:58:14.269Z,99209.53
2023-01-29T10:00:54.963Z,99209.41
2023-01-29T10:03:27.176Z,99273.88
2023-01-29T10:06:06.359Z,99272.34
2023-01-29T10:08:44.957Z,99259.25
2023-01-29T10:11:39.179Z,99184.81
2023-01-29T10:14:14.949Z,99257.09
2023-01-29T10:17:12.022Z,99285.06
2023-01-29T10:19:46.614Z,99252.19
2023-01-29T10:22:23.253Z,99258.94
2023-01-29T10:24:57.559Z,99139.53
2023-01-29T10:27:32.053Z,98968.00
2023-01-29T10:30:00.952Z,99104.72
2023-01-29T10:32:29.082Z,99242.94
2023-01-29T10:35:02.018Z,99241.22
2023-01-29T10:37:38.865Z,99186.06
2023-01-29T10:40:46.893Z,99102.19
2023-01-29T10:43:38.108Z,99227.84
2023-01-29T10:46:23.843Z,99219.97
2023-01-29T10:49:05.558Z,99214.25
2023-01-29T10:52:05.444Z,99208.25
2023-01-29T10:55:02.266Z,99210.78
2023-01-29T10:57:40.737Z,99199.69
2023-01-29T11:00:23.829Z,99175.28
2023-01-29T11:02:51.724Z,99203.69
2023-01-29T11:05:46.439Z,99197.59
2023-01-29T11:08:18.365Z,99224.38
2023-01-29T11:11:05.997Z,99184.53
2023-01-29T11:13:40.592Z,99092.91
2023-01-29T11:16:09.239Z,99180.28
2023-01-29T11:18:52.669Z,99190.47
2023-01-29T11:21:19.785Z,99183.06
2023-01-29T11:23:46.967Z,99135.94
2023-01-29T11:26:18.902Z,99223.53
2023-01-29T11:28:48.323Z,99118.31
2023-01-29T11:31:17.983Z,99155.63
2023-01-29T11:33:46.022Z,98872.84
2023-01-29T11:36:32.906Z,99176.97
2023-01-29T11:39:12.437Z,99143.41
2023-01-29T11:41:49.866Z,99101.41
2023-01-29T11:44:22.254Z,99172.38
2023-01-29T11:46:49.729Z,99034.88
2023-01-29T11:49:31.645Z,99139.31
2023-01-29T11:52:02.083Z,99145.56
2023-01-29T11:54:31.469Z,99152.50
2023-01-29T11:56:58.914Z,98948.94
2023-01-29T11:59:44.382Z,99143.81
2023-01-29T12:02:23.873Z,99136.19
2023-01-29T12:04:51.453Z,99124.22
2023-01-29T12:07:19.590Z,99144.63
2023-01-29T12:09:54.924Z,99137.13
2023-01-29T12:12:32.519Z,99136.97
2023-01-29T12:15:17.259Z,99129.84
2023-01-29T12:17:52.393Z,98961.63
2023-01-29T12:20:25.804Z,98837.13
2023-01-29T12:23:14.476Z,99102.03
2023-01-29T12:25:53.330Z,99134.09
2023-01-29T12:28:57.064Z,99133.94
2023-01-29T12:31:37.720Z,99132.72
2023-01-29T12:34:25.055Z,99130.09
2023-01-29T12:37:13.665Z,98767.56
2023-01-29T12:39:40.634Z,99127.94
2023-01-29T12:42:22.716Z,99135.69
2023-01-29T12:44:59.477Z,99131.56
2023-01-29T12:47:48.354Z,99014.28
2023-01-29T12:50:33.069Z,99140.16
2023-01-29T12:53:23.353Z,99113.59
2023-01-29T12:55:59.257Z,99090.47
2023-01-29T12:58:50.806Z,98922.09
2023-01-29T13:01:27.693Z,99132.19
2023-01-29T13:04:06.291Z,99040.13
2023-01-29T13:06:44.428Z,98839.69
2023-01-29T13:09:19.559Z,99112.81
2023-01-29T13:12:13.371Z,99164.03
2023-01-29T13:14:52.032Z,99117.41
2023-01-29T13:17:28.853Z,99109.75
2023-01-29T13:20:00.657Z,99131.81
2023-01-29T13:22:36.887Z,99116.44
2023-01-29T13:25:05.869Z,99111.34
2023-01-29T13:27:35.332Z,98900.47
2023-01-29T13:30:03.064Z,99108.72
2023-01-29T13:32:36.004Z,99064.25
2023-01-29T13:35:12.414Z,99056.22
2023-01-29T13:37:49.234Z,99017.38
2023-01-29T13:40:30.484Z,99028.41
2023-01-29T13:43:00.333Z,99009.56
2023-01-29T13:45:42.267Z,99095.50
2023-01-29T13:48:19.965Z,99033.66
2023-01-29T13:50:47.872Z,98956.22
2023-01-29T13:53:25.233Z,99098.19
2023-01-29T13:55:52.248Z,99098.84
2023-01-29T13:58:31.181Z,98847.13
2023-01-29T14:00:59.248Z,99085.53
2023-01-29T14:03:26.381Z,99092.47
2023-01-29T14:06:00.779Z,99029.56
2023-01-29T14:08:45.313Z,99126.47
2023-01-29T14:11:15.316Z,99094.81
2023-01-29T14:13:44.587Z,99096.59
2023-01-29T14:16:14.520Z,99093.13
2023-01-29T14:18:55.496Z,99027.03
2023-01-29T14:21:28.291Z,98947.47
2023-01-29T14:23:59.342Z,99129.44
2023-01-29T14:26:33.282Z,99096.06
2023-01-29T14:32:08.113Z,99095.59
2023-01-29T14:32:42.555Z,99090.16
2023-01-29T14:34:47.925Z,98788.38
2023-01-29T14:37:14.884Z,99087.13
2023-01-29T14:39:47.729Z,99077.75
2023-01-29T14:42:20.549Z,99078.69
2023-01-29T14:44:48.622Z,99068.63
2023-01-29T14:47:27.557Z,99065.13
2023-01-29T14:49:57.444Z,98907.09
2023-01-29T14:52:35.855Z,99068.66
2023-01-29T14:55:07.133Z,98992.22
2023-01-29T14:57:35.909Z,99059.16
2023-01-29T15:00:06.510Z,99020.09
2023-01-29T15:02:41.668Z,99054.44
2023-01-29T15:05:14.142Z,99043.28
2023-01-29T15:07:58.523Z,99038.84
2023-01-29T15:10:31.332Z,99041.22
2023-01-29T15:13:04.999Z,98984.78
2023-01-29T15:15:47.676Z,98802.59
2023-01-29T15:18:28.783Z,98629.19
2023-01-29T15:21:05.733Z,98847.50
2023-01-29T15:23:34.387Z,99015.81
2023-01-29T15:26:03.450Z,98883.91
2023-01-29T15:28:32.220Z,99024.31
2023-01-29T15:31:01.609Z,98781.09
2023-01-29T15:33:29.050Z,98675.66
2023-01-29T15:36:08.932Z,98914.66
2023-01-29T15:38:36.398Z,98954.91
2023-01-29T15:41:20.844Z,98992.44
2023-01-29T15:43:57.505Z,98970.63
2023-01-29T15:46:36.529Z,99007.41
2023-01-29T15:49:08.779Z,99007.41
2023-01-29T15:51:37.355Z,98914.72
2023-01-29T15:54:09.792Z,98946.25
2023-01-29T15:56:40.200Z,98822.09
2023-01-29T15:59:09.675Z,99006.66
2023-01-29T16:01:36.795Z,98979.69
2023-01-29T16:04:04.316Z,98835.34
2023-01-29T16:06:37.531Z,98947.03
2023-01-29T16:09:05.465Z,98960.22
2023-01-29T16:11:34.166Z,98996.81
2023-01-29T16:14:02.891Z,98940.09
2023-01-29T16:16:30.042Z,98812.19
2023-01-29T16:19:00.852Z,98990.53
2023-01-29T16:21:40.615Z,99030.91
2023-01-29T16:24:14.020Z,98925.59
2023-01-29T16:26:47.571Z,98904.31
2023-01-29T16:29:17.224Z,98749.31
2023-01-29T16:31:47.547Z,98981.56
2023-01-29T16:34:28.842Z,99021.47
2023-01-29T16:36:56.982Z,99007.13
2023-01-29T16:39:28.026Z,98829.06
2023-01-29T16:42:09.717Z,99000.22
2023-01-29T16:44:39.232Z,98982.47
2023-01-29T16:47:14.648Z,98716.75
2023-01-29T16:49:50.222Z,98720.97
2023-01-29T16:52:24.490Z,98708.28
2023-01-29T16:54:52.653Z,98745.56
2023-01-29T16:57:26.095Z,98847.91
2023-01-29T16:59:57.589Z,98950.59
2023-01-29T17:02:33.482Z,98978.13
2023-01-29T17:05:05.658Z,98918.97
2023-01-29T17:07:34.444Z,98942.28
2023-01-29T17:13:05.006Z,98674.59
2023-01-29T17:15:44.108Z,98965.16
2023-01-29T17:18:25.917Z,98898.34
2023-01-29T17:20:53.888Z,98965.13
2023-01-29T17:23:22.626Z,98971.28
2023-01-29T17:25:49.753Z,98967.75
2023-01-29T17:28:18.044Z,98661.84
2023-01-29T17:30:56.616Z,98807.28
2023-01-29T17:33:32.100Z,98957.72
2023-01-29T17:35:58.988Z,98954.38
2023-01-29T17:38:26.794Z,98914.19
2023-01-29T17:40:56.397Z,98945.00
2023-01-29T17:43:23.832Z,98660.38
2023-01-29T17:45:53.913Z,98823.69
2023-01-29T17:48:30.186Z,98904.50
2023-01-29T17:51:03.363Z,98938.97
2023-01-29T17:53:44.374Z,98929.56
2023-01-29T17:56:18.299Z,98780.81
2023-01-29T17:58:45.236Z,98912.66
2023-01-29T18:01:12.088Z,98855.94
2023-01-29T18:03:38.918Z,98790.91
2023-01-29T18:06:09.935Z,98786.75
2023-01-29T18:08:39.425Z,98691.53
2023-01-29T18:11:06.406Z,98916.13
2023-01-29T18:13:35.965Z,98805.91
2023-01-29T18:16:03.005Z,98872.00
2023-01-29T18:18:29.963Z,98914.59
2023-01-29T18:20:56.722Z,98861.00
2023-01-29T18:23:24.932Z,98793.34
2023-01-29T18:25:52.989Z,98728.13
2023-01-29T18:28:20.134Z,98853.75
2023-01-29T18:30:47.827Z,98843.72
2023-01-29T18:33:16.048Z,98892.59
2023-01-29T18:35:48.230Z,98852.47
2023-01-29T18:38:15.794Z,98885.69
2023-01-29T18:40:43.281Z,98870.31
2023-01-29T18:43:10.118Z,98845.06
2023-01-29T18:45:37.059Z,98748.97
2023-01-29T18:48:10.235Z,98412.06
2023-01-29T18:50:40.598Z,98845.13
2023-01-29T18:53:07.766Z,98859.06
2023-01-29T18:55:39.908Z,98746.59
2023-01-29T18:58:27.893Z,98851.00
2023-01-29T19:01:07.171Z,98839.22
2023-01-29T19:03:36.434Z,98834.41
2023-01-29T19:06:06.635Z,98746.97
2023-01-29T19:08:34.475Z,98733.31
2023-01-29T19:11:03.986Z,98807.75
2023-01-29T19:13:32.115Z,98720.84
2023-01-29T19:15:59.232Z,98829.66
2023-01-29T19:18:27.509Z,98832.06
2023-01-29T19:20:54.889Z,98701.91
2023-01-29T19:23:22.133Z,98845.81
2023-01-29T19:25:49.098Z,98837.66
2023-01-29T19:28:15.978Z,98537.22
2023-01-29T19:30:42.912Z,98779.13
2023-01-29T19:33:10.659Z,98771.19
2023-01-29T19:35:37.522Z,98750.44
2023-01-29T19:38:04.499Z,98727.34
2023-01-29T19:40:31.817Z,98718.66
2023-01-29T19:42:58.790Z,98769.94
2023-01-29T19:45:48.968Z,98661.28
2023-01-29T19:48:15.010Z,98716.16
2023-01-29T19:50:42.444Z,98828.00
2023-01-29T19:53:09.850Z,98707.81
2023-01-29T19:55:37.085Z,98813.56
2023-01-29T19:58:04.789Z,98659.94
2023-01-29T20:00:31.724Z,98798.25
2023-01-29T20:02:58.655Z,98799.94
2023-01-29T20:05:27.038Z,98708.09
2023-01-29T20:07:54.097Z,98745.91
2023-01-29T20:10:21.248Z,98651.47
2023-01-29T20:12:48.108Z,98579.81
2023-01-29T20:15:15.724Z,98802.63
2023-01-29T20:17:43.583Z,98770.59
2023-01-29T20:20:11.787Z,98809.16
2023-01-29T20:22:38.806Z,98678.22
2023-01-29T20:25:06.012Z,98789.69
2023-01-29T20:27:32.756Z,98479.31
2023-01-29T20:29:59.734Z,98775.03
2023-01-29T20:32:26.674Z,98729.13
2023-01-29T20:34:53.576Z,98707.72
2023-01-29T20:37:20.554Z,98772.28
2023-01-29T20:39:47.339Z,98780.69
2023-01-29T20:42:14.276Z,98718.75
2023-01-29T20:44:41.164Z,98723.72
2023-01-29T20:47:08.525Z,98672.03
2023-01-29T20:49:35.338Z,98579.41
2023-01-29T20:52:02.244Z,98497.25
2023-01-29T20:54:30.068Z,98753.28
2023-01-29T20:56:57.134Z,98666.69
2023-01-29T20:59:24.012Z,98652.84
2023-01-29T21:01:50.859Z,98615.69
2023-01-29T21:04:17.641Z,98431.66
2023-01-29T21:06:44.513Z,98545.63
2023-01-29T21:09:11.216Z,98734.94
2023-01-29T21:11:38.023Z,98723.91
2023-01-29T21:14:05.061Z,98737.44
2023-01-29T21:16:31.883Z,98490.78
2023-01-29T21:18:59.394Z,98584.56
2023-01-29T21:21:26.816Z,98680.41
2023-01-29T21:23:54.004Z,98488.56
2023-01-29T21:26:21.532Z,98478.13
2023-01-29T21:28:48.545Z,98545.88
2023-01-29T21:31:16.970Z,98651.16
2023-01-29T21:33:44.041Z,98521.84
2023-01-29T21:36:11.157Z,98612.22
2023-01-29T21:38:38.762Z,98654.09
2023-01-29T21:41:08.737Z,98630.94
2023-01-29T21:43:36.458Z,98703.94
2023-01-29T21:46:11.740Z,98684.75
2023-01-29T21:48:39.595Z,98696.50
2023-01-29T21:51:07.680Z,98632.81
2023-01-29T21:53:34.995Z,98611.25
2023-01-29T21:56:03.044Z,98674.88
2023-01-29T21:58:30.015Z,98562.44
2023-01-29T22:00:56.986Z,98662.16
2023-01-29T22:03:45.537Z,98634.59
2023-01-29T22:06:13.692Z,98639.25
2023-01-29T22:08:40.383Z,98659.19
2023-01-29T22:11:08.153Z,98662.41
2023-01-29T22:13:34.899Z,98687.69
2023-01-29T22:16:01.762Z,98624.94
2023-01-29T22:18:28.488Z,98568.34
2023-01-29T22:20:56.720Z,98627.09
2023-01-29T22:23:24.239Z,98631.38
2023-01-29T22:25:51.059Z,98500.25
2023-01-29T22:28:18.667Z,98565.28
2023-01-29T22:30:45.891Z,98376.28
2023-01-29T22:33:12.714Z,98519.50
2023-01-29T22:35:39.482Z,98498.16
2023-01-29T22:38:06.528Z,98629.88
2023-01-29T22:40:33.305Z,98457.38
2023-01-29T22:43:00.088Z,98566.72
2023-01-29T22:45:27.332Z,98384.13
2023-01-29T22:47:54.105Z,98419.09
2023-01-29T22:50:21.023Z,98579.97
2023-01-29T22:52:53.997Z,98405.81
2023-01-29T22:55:21.187Z,98339.19
2023-01-29T22:57:51.016Z,98503.28
2023-01-29T23:00:18.652Z,98574.97
2023-01-29T23:02:49.454Z,98519.88
2023-01-29T23:05:16.169Z,98574.25
2023-01-29T23:07:42.999Z,98444.31
2023-01-29T23:10:16.677Z,98435.41
2023-01-29T23:12:43.549Z,98480.94
2023-01-29T23:15:10.379Z,98390.44
2023-01-29T23:17:39.542Z,98483.72
2023-01-29T23:20:06.985Z,98535.22
2023-01-29T23:22:33.695Z,98466.63
2023-01-29T23:25:02.709Z,98506.50
2023-01-29T23:27:29.471Z,98548.00
2023-01-29T23:29:56.156Z,98542.00
2023-01-29T23:32:22.994Z,98552.06
2023-01-29T23:34:49.717Z,98319.00
2023-01-29T23:37:16.485Z,98502.22
2023-01-29T23:39:43.338Z,98512.84
2023-01-29T23:42:10.073Z,98533.47
2023-01-29T23:44:36.963Z,98453.00
2023-01-29T23:47:03.824Z,98499.78
2023-01-29T23:49:30.493Z,98341.53
2023-01-29T23:51:57.544Z,98364.72
2023-01-29T23:54:24.349Z,98517.63
2023-01-29T23:56:51.068Z,98378.84
2023-01-29T23:59:18.246Z,98518.53
